createdAt,value
2019-03-20T00:01:44.103Z,0.97
2019-03-20T00:04:16.636Z,0.93
2019-03-20T00:06:48.903Z,0.90
2019-03-20T00:09:20.957Z,0.87
2019-03-20T00:11:53.236Z,0.85
2019-03-20T00:14:25.764Z,0.85
2019-03-20T00:16:58.086Z,0.80
2019-03-20T00:19:30.591Z,0.76
2019-03-20T00:22:03.031Z,0.78
2019-03-20T00:24:35.405Z,0.76
2019-03-20T00:27:08.082Z,0.76
2019-03-20T00:29:40.762Z,0.78
2019-03-20T00:32:13.342Z,0.79
2019-03-20T00:34:45.608Z,0.79
2019-03-20T00:37:18.183Z,0.79
2019-03-20T00:39:50.556Z,0.81
2019-03-20T00:42:22.518Z,0.81
2019-03-20T00:44:54.788Z,0.82
2019-03-20T00:47:26.742Z,0.80
2019-03-20T00:49:59.027Z,0.77
2019-03-20T00:52:31.493Z,0.73
2019-03-20T00:55:03.416Z,0.64
2019-03-20T00:57:35.836Z,0.38
2019-03-20T01:00:27.664Z,0.38
2019-03-20T01:03:00.132Z,0.26
2019-03-20T01:05:33.837Z,0.06
2019-03-20T01:08:06.208Z,-0.07
2019-03-20T01:10:38.577Z,-0.07
2019-03-20T01:13:11.262Z,-0.09
2019-03-20T01:15:43.539Z,-0.13
2019-03-20T01:18:15.899Z,-0.13
2019-03-20T01:20:48.270Z,-0.14
2019-03-20T01:23:20.233Z,-0.16
2019-03-20T01:25:52.614Z,-0.15
2019-03-20T01:28:24.980Z,-0.17
2019-03-20T01:30:57.452Z,-0.18
2019-03-20T01:33:29.822Z,-0.18
2019-03-20T01:36:02.195Z,-0.22
2019-03-20T01:38:34.672Z,-0.22
2019-03-20T01:41:07.041Z,-0.28
2019-03-20T01:43:39.110Z,-0.46
2019-03-20T01:46:11.376Z,-0.46
2019-03-20T01:48:43.343Z,-0.53
2019-03-20T01:51:23.491Z,-0.62
2019-03-20T01:53:55.867Z,-0.58
2019-03-20T01:56:29.366Z,-0.57
2019-03-20T01:59:02.043Z,-0.60
2019-03-20T02:01:33.973Z,-0.76
2019-03-20T02:04:06.477Z,-0.76
2019-03-20T02:06:39.003Z,-0.79
2019-03-20T02:09:11.428Z,-0.89
2019-03-20T02:11:43.805Z,-0.92
2019-03-20T02:14:16.169Z,-0.92
2019-03-20T02:16:48.857Z,-0.91
2019-03-20T02:19:21.138Z,-0.89
2019-03-20T02:21:53.067Z,-0.84
2019-03-20T02:24:25.661Z,-0.82
2019-03-20T02:26:58.031Z,-0.83
2019-03-20T02:29:30.757Z,-0.84
2019-03-20T02:32:02.633Z,-0.86
2019-03-20T02:34:35.052Z,-0.86
2019-03-20T02:37:06.976Z,-0.85
2019-03-20T02:39:39.285Z,-0.83
2019-03-20T02:42:11.648Z,-0.82
2019-03-20T02:44:44.019Z,-0.81
2019-03-20T02:47:15.940Z,-0.74
2019-03-20T02:49:48.515Z,-0.71
2019-03-20T02:52:20.831Z,-0.71
2019-03-20T02:54:53.203Z,-0.69
2019-03-20T02:57:25.131Z,-0.70
2019-03-20T02:59:57.844Z,-0.73
2019-03-20T03:02:30.213Z,-0.75
2019-03-20T03:05:02.196Z,-0.75
2019-03-20T03:07:34.345Z,-0.83
2019-03-20T03:10:10.909Z,-0.83
2019-03-20T03:12:42.838Z,-0.78
2019-03-20T03:15:15.704Z,-0.77
2019-03-20T03:17:47.622Z,-0.77
2019-03-20T03:20:19.994Z,-0.86
2019-03-20T03:22:52.620Z,-0.89
2019-03-20T03:25:24.624Z,-0.90
2019-03-20T03:27:56.903Z,-0.97
2019-03-20T03:30:29.380Z,-0.99
2019-03-20T03:33:01.310Z,-1.01
2019-03-20T03:35:33.270Z,-1.01
2019-03-20T03:38:05.571Z,-0.99
2019-03-20T03:40:37.944Z,-1.00
2019-03-20T03:43:10.325Z,-1.01
2019-03-20T03:45:42.688Z,-1.02
2019-03-20T03:48:15.066Z,-1.04
2019-03-20T03:50:48.398Z,-1.06
2019-03-20T03:53:21.891Z,-1.05
2019-03-20T03:55:54.224Z,-1.05
2019-03-20T03:58:26.599Z,-1.04
2019-03-20T04:00:58.970Z,-1.01
2019-03-20T04:03:31.342Z,-1.00
2019-03-20T04:06:03.713Z,-0.96
2019-03-20T04:08:36.090Z,-0.97
2019-03-20T04:11:08.461Z,-0.97
2019-03-20T04:13:41.038Z,-1.01
2019-03-20T04:16:13.611Z,-1.02
2019-03-20T04:18:46.082Z,-1.03
2019-03-20T04:21:18.455Z,-1.02
2019-03-20T04:23:51.644Z,-1.01
2019-03-20T04:26:24.022Z,-1.01
2019-03-20T04:28:56.398Z,-1.04
2019-03-20T04:31:28.870Z,-1.05
2019-03-20T04:34:01.342Z,-1.08
2019-03-20T04:36:33.714Z,-1.09
2019-03-20T04:39:08.179Z,-1.10
2019-03-20T04:41:40.503Z,-1.10
2019-03-20T04:44:13.077Z,-1.08
2019-03-20T04:46:45.658Z,-1.05
2019-03-20T04:49:18.132Z,-1.06
2019-03-20T04:51:50.873Z,-1.09
2019-03-20T04:54:23.356Z,-1.10
2019-03-20T04:56:56.222Z,-1.12
2019-03-20T04:59:28.846Z,-1.15
2019-03-20T05:02:01.522Z,-1.14
2019-03-20T05:04:33.896Z,-1.17
2019-03-20T05:07:06.377Z,-1.15
2019-03-20T05:09:38.854Z,-1.17
2019-03-20T05:12:11.215Z,-1.16
2019-03-20T05:14:43.688Z,-1.14
2019-03-20T05:17:16.068Z,-1.17
2019-03-20T05:19:48.542Z,-1.17
2019-03-20T05:22:20.909Z,-1.18
2019-03-20T05:24:53.385Z,-1.15
2019-03-20T05:27:25.861Z,-1.11
2019-03-20T05:29:58.231Z,-1.08
2019-03-20T05:32:30.605Z,-1.02
2019-03-20T05:35:02.975Z,-1.02
2019-03-20T05:37:35.347Z,-0.97
2019-03-20T05:40:17.179Z,-0.89
2019-03-20T05:42:49.518Z,-0.84
2019-03-20T05:45:21.998Z,-0.76
2019-03-20T05:47:54.466Z,-0.65
2019-03-20T05:50:26.834Z,-0.55
2019-03-20T05:52:59.256Z,-0.48
2019-03-20T05:55:31.779Z,-0.41
2019-03-20T05:58:04.155Z,-0.31
2019-03-20T06:00:37.345Z,-0.19
2019-03-20T06:03:09.518Z,-0.06
2019-03-20T06:05:42.086Z,0.07
2019-03-20T06:08:14.454Z,0.16
2019-03-20T06:10:46.831Z,0.25
2019-03-20T06:13:19.203Z,0.31
2019-03-20T06:15:51.166Z,0.54
2019-03-20T06:18:23.742Z,0.61
2019-03-20T06:20:56.122Z,0.61
2019-03-20T06:23:28.039Z,0.67
2019-03-20T06:26:00.659Z,0.81
2019-03-20T06:28:33.029Z,0.89
2019-03-20T06:31:05.501Z,1.06
2019-03-20T06:33:38.691Z,1.25
2019-03-20T06:36:11.370Z,1.36
2019-03-20T06:38:43.523Z,1.48
2019-03-20T06:41:15.914Z,1.71
2019-03-20T06:43:48.279Z,1.71
2019-03-20T06:46:22.525Z,1.82
2019-03-20T06:48:56.610Z,2.03
2019-03-20T06:51:29.190Z,2.03
2019-03-20T06:54:03.502Z,1.99
2019-03-20T06:56:35.459Z,2.19
2019-03-20T06:59:32.102Z,2.38
2019-03-20T07:02:07.945Z,2.47
2019-03-20T07:05:07.450Z,2.79
2019-03-20T07:07:44.387Z,2.87
2019-03-20T07:10:33.903Z,3.18
2019-03-20T07:13:06.382Z,3.45
2019-03-20T07:15:38.965Z,3.75
2019-03-20T07:18:11.324Z,3.75
2019-03-20T07:20:43.705Z,3.93
2019-03-20T07:23:16.694Z,4.16
2019-03-20T07:25:48.650Z,4.43
2019-03-20T07:28:21.019Z,4.40
2019-03-20T07:30:53.397Z,4.34
2019-03-20T07:33:25.765Z,4.51
2019-03-20T07:35:58.142Z,4.59
2019-03-20T07:38:30.715Z,4.93
2019-03-20T07:41:03.199Z,5.07
2019-03-20T07:43:36.588Z,5.31
2019-03-20T07:46:08.966Z,5.57
2019-03-20T07:48:41.338Z,5.71
2019-03-20T07:51:13.902Z,5.69
2019-03-20T07:53:46.277Z,5.66
2019-03-20T07:56:18.757Z,5.76
2019-03-20T07:58:51.117Z,5.65
2019-03-20T08:01:23.073Z,5.80
2019-03-20T08:03:56.123Z,5.76
2019-03-20T08:06:28.543Z,5.93
2019-03-20T08:09:00.924Z,6.33
2019-03-20T08:11:34.191Z,6.82
2019-03-20T08:14:06.547Z,6.88
2019-03-20T08:16:38.961Z,6.96
2019-03-20T08:19:10.877Z,6.87
2019-03-20T08:21:43.289Z,7.08
2019-03-20T08:24:15.671Z,7.12
2019-03-20T08:26:48.043Z,7.28
2019-03-20T08:29:20.519Z,7.86
2019-03-20T08:31:52.886Z,7.52
2019-03-20T08:34:25.769Z,7.40
2019-03-20T08:36:58.131Z,7.59
2019-03-20T08:39:30.401Z,8.02
2019-03-20T08:42:02.786Z,8.14
2019-03-20T08:44:36.277Z,8.30
2019-03-20T08:47:08.656Z,8.35
2019-03-20T08:49:41.082Z,8.26
2019-03-20T08:52:13.397Z,8.18
2019-03-20T08:54:45.755Z,8.51
2019-03-20T08:57:18.131Z,8.58
2019-03-20T08:59:50.516Z,8.74
2019-03-20T09:02:23.900Z,8.57
2019-03-20T09:04:56.174Z,8.51
2019-03-20T09:07:28.551Z,8.76
2019-03-20T09:10:00.913Z,8.65
2019-03-20T09:12:32.868Z,8.60
2019-03-20T09:15:06.380Z,8.83
2019-03-20T09:17:39.169Z,9.22
2019-03-20T09:20:18.194Z,9.19
2019-03-20T09:22:50.659Z,9.38
2019-03-20T09:25:24.298Z,9.51
2019-03-20T09:27:56.637Z,9.38
2019-03-20T09:30:30.699Z,9.56
2019-03-20T09:33:03.025Z,9.85
2019-03-20T09:35:35.971Z,10.08
2019-03-20T09:38:08.270Z,9.96
2019-03-20T09:40:40.638Z,9.72
2019-03-20T09:43:13.127Z,9.60
2019-03-20T09:45:45.489Z,10.18
2019-03-20T09:48:17.874Z,10.73
2019-03-20T09:50:50.245Z,10.30
2019-03-20T09:53:22.616Z,10.35
2019-03-20T09:55:54.986Z,10.01
2019-03-20T09:58:27.348Z,9.85
2019-03-20T10:00:59.717Z,9.92
2019-03-20T10:03:32.093Z,10.31
2019-03-20T10:06:04.475Z,10.69
2019-03-20T10:08:36.834Z,10.61
2019-03-20T10:11:09.265Z,10.38
2019-03-20T10:13:41.685Z,10.70
2019-03-20T10:16:14.058Z,10.78
2019-03-20T10:18:46.427Z,11.01
2019-03-20T10:21:18.915Z,10.88
2019-03-20T10:23:50.850Z,10.72
2019-03-20T10:26:23.240Z,10.84
2019-03-20T10:28:55.841Z,11.20
2019-03-20T10:31:28.194Z,11.49
2019-03-20T10:34:01.485Z,11.64
2019-03-20T10:36:33.847Z,12.23
2019-03-20T10:39:08.301Z,11.96
2019-03-20T10:41:40.241Z,12.13
2019-03-20T10:44:12.602Z,11.98
2019-03-20T10:46:44.973Z,11.56
2019-03-20T10:49:17.253Z,11.03
2019-03-20T10:51:49.634Z,11.64
2019-03-20T10:54:21.580Z,11.64
2019-03-20T10:56:53.547Z,11.94
2019-03-20T10:59:26.381Z,11.86
2019-03-20T11:02:00.783Z,12.27
2019-03-20T11:04:32.724Z,11.87
2019-03-20T11:07:05.281Z,12.35
2019-03-20T11:09:37.666Z,12.16
2019-03-20T11:12:10.028Z,12.29
2019-03-20T11:14:42.408Z,12.36
2019-03-20T11:17:14.778Z,12.09
2019-03-20T11:19:47.207Z,12.18
2019-03-20T11:22:20.904Z,12.47
2019-03-20T11:24:53.234Z,12.68
2019-03-20T11:27:27.760Z,12.49
2019-03-20T11:30:00.343Z,12.52
2019-03-20T11:32:32.589Z,12.28
2019-03-20T11:35:05.571Z,12.59
2019-03-20T11:37:37.943Z,12.50
2019-03-20T11:40:14.947Z,12.07
2019-03-20T11:42:47.294Z,12.04
2019-03-20T11:45:19.721Z,12.08
2019-03-20T11:47:51.686Z,13.02
2019-03-20T11:50:37.096Z,12.35
2019-03-20T11:53:11.235Z,12.98
2019-03-20T11:55:43.603Z,13.62
2019-03-20T11:58:15.987Z,13.95
2019-03-20T12:00:48.349Z,13.66
2019-03-20T12:03:20.726Z,13.77
2019-03-20T12:05:52.651Z,13.96
2019-03-20T12:08:26.684Z,14.07
2019-03-20T12:10:58.763Z,14.11
2019-03-20T12:13:32.471Z,13.91
2019-03-20T12:16:04.826Z,13.96
2019-03-20T12:18:37.511Z,14.15
2019-03-20T12:21:09.885Z,14.06
2019-03-20T12:23:42.566Z,14.82
2019-03-20T12:26:14.930Z,14.52
2019-03-20T12:28:47.302Z,13.74
2019-03-20T12:31:19.676Z,13.97
2019-03-20T12:33:52.048Z,14.56
2019-03-20T12:36:24.411Z,14.51
2019-03-20T12:38:56.887Z,14.56
2019-03-20T12:41:30.281Z,14.95
2019-03-20T12:44:02.263Z,14.75
2019-03-20T12:46:41.338Z,14.85
2019-03-20T12:49:08.641Z,14.78
2019-03-20T12:51:41.006Z,15.33
2019-03-20T12:54:13.387Z,15.35
2019-03-20T12:56:45.758Z,15.35
2019-03-20T12:59:17.709Z,15.38
2019-03-20T13:01:50.080Z,14.87
2019-03-20T13:04:22.465Z,15.09
2019-03-20T13:06:54.835Z,15.63
2019-03-20T13:09:27.196Z,16.43
2019-03-20T13:11:59.578Z,15.82
2019-03-20T13:14:31.963Z,15.34
2019-03-20T13:17:04.325Z,15.39
2019-03-20T13:19:36.477Z,14.78
2019-03-20T13:22:08.855Z,15.55
2019-03-20T13:24:41.221Z,16.33
2019-03-20T13:27:13.597Z,16.60
2019-03-20T13:29:45.974Z,15.97
2019-03-20T13:32:17.943Z,16.44
2019-03-20T13:34:50.301Z,16.35
2019-03-20T13:37:22.688Z,16.39
2019-03-20T13:39:55.052Z,16.90
2019-03-20T13:42:27.425Z,16.61
2019-03-20T13:44:59.356Z,16.66
2019-03-20T13:47:31.758Z,16.91
2019-03-20T13:50:04.428Z,16.33
2019-03-20T13:52:36.807Z,17.47
2019-03-20T13:55:12.143Z,16.74
2019-03-20T13:57:44.514Z,17.56
2019-03-20T14:00:25.186Z,17.85
2019-03-20T14:02:57.571Z,17.46
2019-03-20T14:05:29.928Z,17.37
2019-03-20T14:08:02.306Z,16.67
2019-03-20T14:10:49.410Z,17.26
2019-03-20T14:13:08.685Z,17.08
2019-03-20T14:15:40.609Z,17.19
2019-03-20T14:18:13.026Z,17.50
2019-03-20T14:20:45.412Z,16.39
2019-03-20T14:23:17.767Z,15.24
2019-03-20T14:25:50.133Z,15.29
2019-03-20T14:28:22.516Z,15.92
2019-03-20T14:30:54.888Z,16.32
2019-03-20T14:33:26.858Z,15.76
2019-03-20T14:35:59.728Z,15.65
2019-03-20T14:38:32.102Z,17.40
2019-03-20T14:41:04.275Z,16.51
2019-03-20T14:43:36.639Z,18.13
2019-03-20T14:46:09.665Z,18.61
2019-03-20T14:48:41.991Z,17.91
2019-03-20T14:51:14.363Z,17.73
2019-03-20T14:53:46.747Z,17.46
2019-03-20T14:56:18.692Z,17.85
2019-03-20T14:58:51.082Z,17.46
2019-03-20T15:01:23.498Z,17.86
2019-03-20T15:03:57.659Z,17.59
2019-03-20T15:06:30.034Z,16.68
2019-03-20T15:09:02.408Z,18.60
2019-03-20T15:11:34.884Z,17.68
2019-03-20T15:14:06.841Z,16.28
2019-03-20T15:16:39.106Z,17.18
2019-03-20T15:19:11.693Z,18.18
2019-03-20T15:21:44.059Z,16.69
2019-03-20T15:24:16.042Z,18.57
2019-03-20T15:26:48.390Z,19.00
2019-03-20T15:29:20.800Z,18.11
2019-03-20T15:31:53.190Z,17.77
2019-03-20T15:34:25.519Z,17.86
2019-03-20T15:36:58.906Z,16.51
2019-03-20T15:39:31.285Z,15.28
2019-03-20T15:42:03.647Z,14.23
2019-03-20T15:44:36.024Z,13.61
2019-03-20T15:47:08.290Z,12.98
2019-03-20T15:49:40.260Z,12.91
2019-03-20T15:52:12.180Z,12.89
2019-03-20T15:54:44.585Z,12.83
2019-03-20T15:57:17.896Z,12.51
2019-03-20T15:59:50.256Z,12.47
2019-03-20T16:02:22.624Z,12.63
2019-03-20T16:04:56.226Z,12.37
2019-03-20T16:07:28.600Z,12.21
2019-03-20T16:10:00.972Z,12.14
2019-03-20T16:12:33.353Z,11.95
2019-03-20T16:15:09.297Z,11.72
2019-03-20T16:17:41.668Z,11.55
2019-03-20T16:20:15.386Z,11.46
2019-03-20T16:22:47.761Z,11.34
2019-03-20T16:25:25.853Z,11.23
2019-03-20T16:27:58.231Z,11.35
2019-03-20T16:30:32.494Z,11.12
2019-03-20T16:33:04.821Z,11.01
2019-03-20T16:35:37.193Z,10.90
2019-03-20T16:38:09.564Z,10.74
2019-03-20T16:40:41.970Z,10.82
2019-03-20T16:43:14.296Z,10.77
2019-03-20T16:45:46.673Z,10.55
2019-03-20T16:48:19.050Z,10.35
2019-03-20T16:50:52.039Z,10.14
2019-03-20T16:53:24.406Z,10.03
2019-03-20T16:55:56.779Z,9.93
2019-03-20T16:58:28.695Z,9.84
2019-03-20T17:01:01.003Z,9.75
2019-03-20T17:03:33.389Z,9.63
2019-03-20T17:06:05.758Z,9.56
2019-03-20T17:08:37.746Z,9.49
2019-03-20T17:11:10.082Z,9.37
2019-03-20T17:13:42.464Z,9.26
2019-03-20T17:16:14.394Z,9.17
2019-03-20T17:18:48.032Z,9.06
2019-03-20T17:21:20.403Z,8.98
2019-03-20T17:23:52.778Z,8.96
2019-03-20T17:26:25.132Z,8.95
2019-03-20T17:28:57.507Z,8.92
2019-03-20T17:31:29.881Z,8.87
2019-03-20T17:34:02.251Z,8.84
2019-03-20T17:36:34.627Z,8.83
2019-03-20T17:39:10.377Z,8.81
2019-03-20T17:41:42.746Z,8.80
2019-03-20T17:44:14.711Z,8.80
2019-03-20T17:46:47.078Z,8.77
2019-03-20T17:49:19.457Z,8.77
2019-03-20T17:51:51.721Z,8.70
2019-03-20T17:54:24.195Z,8.66
2019-03-20T17:56:56.568Z,8.64
2019-03-20T17:59:28.522Z,8.60
2019-03-20T18:02:00.902Z,8.56
2019-03-20T18:04:33.202Z,8.61
2019-03-20T18:07:05.553Z,8.59
2019-03-20T18:09:37.922Z,8.60
2019-03-20T18:12:10.306Z,8.57
2019-03-20T18:14:42.669Z,8.52
2019-03-20T18:17:15.338Z,8.46
2019-03-20T18:19:47.712Z,8.33
2019-03-20T18:22:20.095Z,8.28
2019-03-20T18:24:52.276Z,8.20
2019-03-20T18:27:24.624Z,8.13
2019-03-20T18:29:56.998Z,8.11
2019-03-20T18:32:29.369Z,8.13
2019-03-20T18:35:01.331Z,8.12
2019-03-20T18:37:33.718Z,8.12
2019-03-20T18:40:13.239Z,8.17
2019-03-20T18:42:45.517Z,8.21
2019-03-20T18:45:20.887Z,8.27
2019-03-20T18:47:53.233Z,8.38
2019-03-20T18:50:26.107Z,8.40
2019-03-20T18:52:58.379Z,8.41
2019-03-20T18:55:30.831Z,8.44
2019-03-20T18:58:03.222Z,8.47
2019-03-20T19:00:36.843Z,8.47
2019-03-20T19:03:19.249Z,8.47
2019-03-20T19:06:14.550Z,8.47
2019-03-20T19:08:46.895Z,8.48
2019-03-20T19:11:19.388Z,8.50
2019-03-20T19:13:51.539Z,8.49
2019-03-20T19:16:23.521Z,8.50
2019-03-20T19:18:55.907Z,8.53
2019-03-20T19:21:28.482Z,8.50
2019-03-20T19:24:00.863Z,8.50
2019-03-20T19:26:33.327Z,8.47
2019-03-20T19:29:05.692Z,8.51
2019-03-20T19:31:38.061Z,8.53
2019-03-20T19:34:10.442Z,8.56
2019-03-20T19:36:42.811Z,8.60
2019-03-20T19:39:15.224Z,8.65
2019-03-20T19:41:47.178Z,8.70
2019-03-20T19:44:19.573Z,8.75
2019-03-20T19:46:53.310Z,8.73
2019-03-20T19:49:25.696Z,8.73
2019-03-20T19:51:57.655Z,8.73
2019-03-20T19:54:30.019Z,8.72
2019-03-20T19:57:02.083Z,8.74
2019-03-20T19:59:35.627Z,8.71
2019-03-20T20:02:08.157Z,8.71
2019-03-20T20:04:40.428Z,8.74
2019-03-20T20:07:12.499Z,8.73
2019-03-20T20:09:44.436Z,8.74
2019-03-20T20:12:18.951Z,8.75
2019-03-20T20:14:50.429Z,8.79
2019-03-20T20:17:22.401Z,8.79
2019-03-20T20:19:54.324Z,8.80
2019-03-20T20:22:26.724Z,8.83
2019-03-20T20:24:59.097Z,8.86
2019-03-20T20:27:31.917Z,8.83
2019-03-20T20:30:05.374Z,8.84
2019-03-20T20:32:37.749Z,8.87
2019-03-20T20:35:12.183Z,8.84
2019-03-20T20:37:45.886Z,8.84
2019-03-20T20:40:28.993Z,8.83
2019-03-20T20:43:01.372Z,8.81
2019-03-20T20:45:33.635Z,8.79
2019-03-20T20:48:05.848Z,8.79
2019-03-20T20:50:38.179Z,8.79
2019-03-20T20:53:10.554Z,8.79
2019-03-20T20:55:42.713Z,8.77
2019-03-20T20:58:15.099Z,8.74
2019-03-20T21:00:47.479Z,8.75
2019-03-20T21:03:19.839Z,8.74
2019-03-20T21:05:52.107Z,8.72
2019-03-20T21:08:24.484Z,8.74
2019-03-20T21:10:56.742Z,8.73
2019-03-20T21:13:29.116Z,8.71
2019-03-20T21:16:01.798Z,8.71
2019-03-20T21:19:10.311Z,8.71
2019-03-20T21:21:44.634Z,8.69
2019-03-20T21:24:25.608Z,8.71
2019-03-20T21:27:08.828Z,8.70
2019-03-20T21:30:07.010Z,8.69
2019-03-20T21:33:08.366Z,8.69
2019-03-20T21:36:07.870Z,8.69
2019-03-20T21:38:40.243Z,8.68
2019-03-20T21:41:29.005Z,8.67
2019-03-20T21:44:17.953Z,8.66
2019-03-20T21:47:00.769Z,8.64
2019-03-20T21:49:33.150Z,8.63
2019-03-20T21:52:05.410Z,8.63
2019-03-20T21:54:51.196Z,8.63
2019-03-20T21:57:31.089Z,8.64
2019-03-20T22:00:26.250Z,8.63
2019-03-20T22:02:58.630Z,8.62
2019-03-20T22:05:50.352Z,8.61
2019-03-20T22:08:22.730Z,8.62
2019-03-20T22:11:30.983Z,8.61
2019-03-20T22:14:12.712Z,8.61
2019-03-20T22:17:24.432Z,8.63
2019-03-20T22:20:04.169Z,8.61
2019-03-20T22:23:00.711Z,8.59
2019-03-20T22:25:50.597Z,8.58
2019-03-20T22:28:49.897Z,8.58
2019-03-20T22:31:23.292Z,8.56
2019-03-20T22:34:37.950Z,8.55
2019-03-20T22:37:10.322Z,8.55
2019-03-20T22:40:15.496Z,8.53
2019-03-20T22:43:09.814Z,8.53
2019-03-20T22:46:10.846Z,8.50
2019-03-20T22:49:11.097Z,8.50
2019-03-20T22:52:13.809Z,8.50
2019-03-20T22:55:13.614Z,8.46
2019-03-20T22:58:24.666Z,8.46
2019-03-20T23:01:02.301Z,8.50
2019-03-20T23:03:53.876Z,8.47
2019-03-20T23:06:26.185Z,8.46
2019-03-20T23:08:59.678Z,8.43
2019-03-20T23:11:31.619Z,8.45
2019-03-20T23:14:05.036Z,8.44
2019-03-20T23:16:36.974Z,8.44
2019-03-20T23:19:09.375Z,8.41
2019-03-20T23:21:42.675Z,8.39
2019-03-20T23:24:15.037Z,8.39
2019-03-20T23:26:46.973Z,8.36
2019-03-20T23:29:19.380Z,8.36
2019-03-20T23:31:51.310Z,8.33
2019-03-20T23:34:23.273Z,8.30
2019-03-20T23:36:55.568Z,8.32
2019-03-20T23:39:28.971Z,8.32
2019-03-20T23:42:01.534Z,8.31
2019-03-20T23:44:33.916Z,8.32
2019-03-20T23:47:07.319Z,8.32
2019-03-20T23:49:40.701Z,8.33
2019-03-20T23:52:13.180Z,8.33
2019-03-20T23:54:47.490Z,8.34
2019-03-20T23:57:21.343Z,8.35
2019-03-20T23:59:53.773Z,8.35
